Tamassee, South Carolina
Current Conditions -  °F | °C
As of 5:54 PM on Sunday 21 Dec 2014 (Local Time) from KCEU Reporting Station
Overcast Overcast  
Wind Chill: 11°   Ceiling: 3000
Heat Index: 11°   Visibility: 10mi
Dew Point:   Wind: 5mph
Humidity: 66%   Direction: 70°ENE
Pressure: 30.16"   Gusts: NA
Location:  34.88°N, 83.02°W
Report Text: KCEU 212254Z AUTO 07004KT 10SM OVC030 11/04 A3016 RMK AO2 SLP212 T01060044
Loading
Personal Weather Stations






























Interactive Weather Map New forecast layout! Learn more

10-Day Weather Forecast

Advertisements
Track Severe Weather on mobile